Lake Dawn — 3EXJ9 — position and weather

sailwx.info

Track history (hours):
 
Tides and Currents Weather Stations Pressure Air Temp Water Temp Dewpoint Dewpoint Depression Visibility Wind Speed Wind Dir Waves Ship Positions

Lake Dawn

Last reported at 2018-Feb-15 21:52 UTC. Time now 2018-Feb-25 23:26 UTC.
Position S 27°32' E 153°49'.
Warning: this ship's position is 10 days out of date.

Length 229 m; draft 13.4 m.

Type: Cargo ship. MMSI: 355196000.

Date/timePositionNaut miles runAvg speedWind from/ knotsBaromVisibWave heightAir tempDewpointWater temp
2018-Feb-15 21:52S 27°32' E 153°49'910.7
2018-Feb-15 21:00S 27°41' E 153°50'510.6
2018-Feb-15 20:30S 27°46' E 153°50'510.5
2018-Feb-15 20:00S 27°52' E 153°50'510.4
2018-Feb-15 19:29S 27°57' E 153°51'510.0
2018-Feb-15 19:01S 28°02' E 153°51'5 9.6
2018-Feb-15 18:31S 28°07' E 153°51'5 9.5
2018-Feb-15 18:01S 28°11' E 153°51'5 9.3
2018-Feb-15 17:30S 28°16' E 153°52'5 9.2
2018-Feb-15 17:00S 28°21' E 153°52'4 9.0
2018-Feb-15 16:30S 28°25' E 153°52'4 8.9
2018-Feb-15 16:00S 28°29' E 153°52'5 8.7
2018-Feb-15 15:28S 28°34' E 153°53'4 8.6
2018-Feb-15 15:01S 28°38' E 153°53'230 9.6
2018-Feb-14 15:01S 32°21' E 152°52'011.7
2018-Feb-14 15:00S 32°22' E 152°52'711.8
2018-Feb-14 14:23S 32°28' E 152°48'411.2
2018-Feb-14 14:00S 32°31' E 152°45'611.5
2018-Feb-14 13:31S 32°35' E 152°39'611.4
2018-Feb-14 13:00S 32°39' E 152°34'611.4
2018-Feb-14 12:31S 32°42' E 152°29'611.3
2018-Feb-14 12:00S 32°45' E 152°23'611.1
2018-Feb-14 11:31S 32°48' E 152°18'511.0
2018-Feb-14 11:01S 32°50' E 152°12'611.0
2018-Feb-14 10:31S 32°52' E 152°06'611.1
2018-Feb-14 10:01S 32°54' E 151°59'611.2
2018-Feb-14 09:31S 32°56' E 151°53'4 7.1
2018-Feb-14 09:01S 32°55' E 151°49'2 3.8
2018-Feb-14 08:31S 32°55' E 151°47'2 4.0
2018-Feb-14 08:00S 32°53' E 151°46'0 0.1
2018-Feb-14 07:28S 32°53' E 151°46'0 0.0
2018-Feb-14 06:58S 32°53' E 151°46'0 0.0
2018-Feb-14 06:28S 32°53' E 151°46'0 0.0
2018-Feb-14 05:58S 32°53' E 151°46'0 0.0
2018-Feb-14 05:28S 32°53' E 151°46'0 0.0
2018-Feb-14 04:58S 32°53' E 151°46'0 0.0
2018-Feb-14 04:28S 32°53' E 151°46'0 0.0
2018-Feb-14 03:58S 32°53' E 151°46'0 0.0
2018-Feb-14 03:28S 32°53' E 151°46'0 0.0
2018-Feb-14 02:58S 32°53' E 151°46'0 0.0
2018-Feb-14 02:28S 32°53' E 151°46'0 0.0
2018-Feb-14 01:58S 32°53' E 151°46'0 0.0
2018-Feb-14 01:28S 32°53' E 151°46'0 0.0
2018-Feb-14 00:58S 32°53' E 151°46'0 0.0
2018-Feb-14 00:28S 32°53' E 151°46'0 0.0
2018-Feb-13 23:58S 32°53' E 151°46'0 0.0
2018-Feb-13 23:28S 32°53' E 151°46'0 0.0
2018-Feb-13 22:58S 32°53' E 151°46'0 0.0
2018-Feb-13 22:28S 32°53' E 151°46'0 0.0
2018-Feb-13 21:58S 32°53' E 151°46'0 0.0
2018-Feb-13 21:22S 32°53' E 151°46'0 0.0
2018-Feb-13 20:58S 32°53' E 151°46'0 0.0
2018-Feb-13 20:28S 32°53' E 151°46'0 0.0
2018-Feb-13 19:58S 32°53' E 151°46'0 0.0
2018-Feb-13 19:28S 32°53' E 151°46'0 0.0
2018-Feb-13 18:58S 32°53' E 151°46'0 0.0
2018-Feb-13 18:28S 32°53' E 151°46'0 0.0
2018-Feb-13 17:58S 32°53' E 151°46'0 0.0
2018-Feb-13 17:28S 32°53' E 151°46'0 0.0
2018-Feb-13 16:58S 32°53' E 151°46'0 0.0
2018-Feb-13 16:28S 32°53' E 151°46'0 0.0
2018-Feb-13 15:58S 32°53' E 151°46'0 0.0
2018-Feb-13 15:28S 32°53' E 151°46'0 0.0
2018-Feb-13 14:58S 32°53' E 151°46'0 0.0
2018-Feb-13 14:28S 32°53' E 151°46'0 0.0
2018-Feb-13 13:58S 32°53' E 151°46'0 0.0
2018-Feb-13 13:28S 32°53' E 151°46'0 0.0
2018-Feb-13 12:58S 32°53' E 151°46'0 0.0
2018-Feb-13 12:28S 32°53' E 151°46'0 0.0
2018-Feb-13 11:58S 32°53' E 151°46'0 0.0
2018-Feb-13 11:28S 32°53' E 151°46'0 0.0
2018-Feb-13 10:58S 32°53' E 151°46'0 0.0
2018-Feb-13 10:28S 32°53' E 151°46'0 0.0
2018-Feb-13 09:58S 32°53' E 151°46'0 0.0
2018-Feb-13 09:28S 32°53' E 151°46'0 0.0
2018-Feb-13 08:58S 32°53' E 151°46'0 0.0
2018-Feb-13 08:28S 32°53' E 151°46'0 0.0
2018-Feb-13 07:58S 32°53' E 151°46'0 0.0
2018-Feb-13 07:30S 32°53' E 151°46'2 3.2
2018-Feb-13 07:00S 32°55' E 151°46'4 7.1
2018-Feb-13 06:30S 32°55' E 151°51'5 9.1
2018-Feb-13 06:00S 32°60' E 151°52'13 1.7
2018-Feb-12 22:30S 33°10' E 151°42'0 0.0
2018-Feb-12 22:00S 33°10' E 151°42'1 0.2
2018-Feb-12 15:38S 33°09' E 151°43'1 4.6
2018-Feb-12 15:30S 33°09' E 151°44'4 7.5
2018-Feb-12 14:59S 33°07' E 151°48'612.7
2018-Feb-12 14:30S 33°03' E 151°54'612.8
2018-Feb-12 14:00S 32°59' E 151°59'612.9
2018-Feb-12 13:30S 32°55' E 152°05'713.3
2018-Feb-12 13:00S 32°52' E 152°12'713.4
2018-Feb-12 12:30S 32°49' E 152°19'713.6
2018-Feb-12 12:00S 32°45' E 152°26'713.4
2018-Feb-12 11:30S 32°41' E 152°32'713.3
2018-Feb-12 11:00S 32°37' E 152°38'713.1
2018-Feb-12 10:30S 32°32' E 152°44'20014.4
2018-Feb-11 20:35S 29°19' E 153°47'3514.9
2018-Feb-11 18:12S 28°44' E 153°53'514.7
2018-Feb-11 17:51S 28°39' E 153°53'514.5
2018-Feb-11 17:30S 28°34' E 153°53'714.3
2018-Feb-11 17:01S 28°27' E 153°53'714.5
2018-Feb-11 16:30S 28°20' E 153°52'714.6
2018-Feb-11 16:01S 28°12' E 153°51'714.5
2018-Feb-11 15:30S 28°05' E 153°51'714.6
2018-Feb-11 15:00S 27°58' E 153°51'714.9
2018-Feb-11 14:30S 27°50' E 153°50'714.9
2018-Feb-11 14:00S 27°43' E 153°50'814.8
2018-Feb-11 13:30S 27°35' E 153°50'815.2
2018-Feb-11 13:00S 27°28' E 153°49'815.3
2018-Feb-11 12:30S 27°20' E 153°49'815.3
2018-Feb-11 12:00S 27°13' E 153°49'815.1
2018-Feb-11 11:30S 27°05' E 153°49'714.3
2018-Feb-11 11:00S 26°58' E 153°48'713.6
2018-Feb-11 10:30S 26°51' E 153°47'3514.3
2018-Feb-11 08:05S 26°17' E 153°49'113.7
2018-Feb-11 08:00S 26°15' E 153°49'  
Track history (hours):
 
Tides and Currents Weather Stations Pressure Air Temp Water Temp Dewpoint Dewpoint Depression Visibility Wind Speed Wind Dir Waves Ship Positions

Lake Dawn

Last reported at 2018-Feb-15 21:52 UTC. Time now 2018-Feb-25 23:26 UTC.
Position S 27°32' E 153°49'.
Warning: this ship's position is 10 days out of date.

Length 229 m; draft 13.4 m.

Type: Cargo ship. MMSI: 355196000.

Date/timePositionNaut miles runAvg speedWind from/ knotsBaromVisibWave heightAir tempDewpointWater temp
2018-Feb-15 21:52S 27°32' E 153°49'910.7
2018-Feb-15 21:00S 27°41' E 153°50'510.6
2018-Feb-15 20:30S 27°46' E 153°50'510.5
2018-Feb-15 20:00S 27°52' E 153°50'510.4
2018-Feb-15 19:29S 27°57' E 153°51'510.0
2018-Feb-15 19:01S 28°02' E 153°51'5 9.6
2018-Feb-15 18:31S 28°07' E 153°51'5 9.5
2018-Feb-15 18:01S 28°11' E 153°51'5 9.3
2018-Feb-15 17:30S 28°16' E 153°52'5 9.2
2018-Feb-15 17:00S 28°21' E 153°52'4 9.0
2018-Feb-15 16:30S 28°25' E 153°52'4 8.9
2018-Feb-15 16:00S 28°29' E 153°52'5 8.7
2018-Feb-15 15:28S 28°34' E 153°53'4 8.6
2018-Feb-15 15:01S 28°38' E 153°53'230 9.6
2018-Feb-14 15:01S 32°21' E 152°52'011.7
2018-Feb-14 15:00S 32°22' E 152°52'711.8
2018-Feb-14 14:23S 32°28' E 152°48'411.2
2018-Feb-14 14:00S 32°31' E 152°45'611.5
2018-Feb-14 13:31S 32°35' E 152°39'611.4
2018-Feb-14 13:00S 32°39' E 152°34'611.4
2018-Feb-14 12:31S 32°42' E 152°29'611.3
2018-Feb-14 12:00S 32°45' E 152°23'611.1
2018-Feb-14 11:31S 32°48' E 152°18'511.0
2018-Feb-14 11:01S 32°50' E 152°12'611.0
2018-Feb-14 10:31S 32°52' E 152°06'611.1
2018-Feb-14 10:01S 32°54' E 151°59'611.2
2018-Feb-14 09:31S 32°56' E 151°53'4 7.1
2018-Feb-14 09:01S 32°55' E 151°49'2 3.8
2018-Feb-14 08:31S 32°55' E 151°47'2 4.0
2018-Feb-14 08:00S 32°53' E 151°46'0 0.1
2018-Feb-14 07:28S 32°53' E 151°46'0 0.0
2018-Feb-14 06:58S 32°53' E 151°46'0 0.0
2018-Feb-14 06:28S 32°53' E 151°46'0 0.0
2018-Feb-14 05:58S 32°53' E 151°46'0 0.0
2018-Feb-14 05:28S 32°53' E 151°46'0 0.0
2018-Feb-14 04:58S 32°53' E 151°46'0 0.0
2018-Feb-14 04:28S 32°53' E 151°46'0 0.0
2018-Feb-14 03:58S 32°53' E 151°46'0 0.0
2018-Feb-14 03:28S 32°53' E 151°46'0 0.0
2018-Feb-14 02:58S 32°53' E 151°46'0 0.0
2018-Feb-14 02:28S 32°53' E 151°46'0 0.0
2018-Feb-14 01:58S 32°53' E 151°46'0 0.0
2018-Feb-14 01:28S 32°53' E 151°46'0 0.0
2018-Feb-14 00:58S 32°53' E 151°46'0 0.0
2018-Feb-14 00:28S 32°53' E 151°46'0 0.0
2018-Feb-13 23:58S 32°53' E 151°46'0 0.0
2018-Feb-13 23:28S 32°53' E 151°46'0 0.0
2018-Feb-13 22:58S 32°53' E 151°46'0 0.0
2018-Feb-13 22:28S 32°53' E 151°46'0 0.0
2018-Feb-13 21:58S 32°53' E 151°46'0 0.0
2018-Feb-13 21:22S 32°53' E 151°46'0 0.0
2018-Feb-13 20:58S 32°53' E 151°46'0 0.0
2018-Feb-13 20:28S 32°53' E 151°46'0 0.0
2018-Feb-13 19:58S 32°53' E 151°46'0 0.0
2018-Feb-13 19:28S 32°53' E 151°46'0 0.0
2018-Feb-13 18:58S 32°53' E 151°46'0 0.0
2018-Feb-13 18:28S 32°53' E 151°46'0 0.0
2018-Feb-13 17:58S 32°53' E 151°46'0 0.0
2018-Feb-13 17:28S 32°53' E 151°46'0 0.0
2018-Feb-13 16:58S 32°53' E 151°46'0 0.0
2018-Feb-13 16:28S 32°53' E 151°46'0 0.0
2018-Feb-13 15:58S 32°53' E 151°46'0 0.0
2018-Feb-13 15:28S 32°53' E 151°46'0 0.0
2018-Feb-13 14:58S 32°53' E 151°46'0 0.0
2018-Feb-13 14:28S 32°53' E 151°46'0 0.0
2018-Feb-13 13:58S 32°53' E 151°46'0 0.0
2018-Feb-13 13:28S 32°53' E 151°46'0 0.0
2018-Feb-13 12:58S 32°53' E 151°46'0 0.0
2018-Feb-13 12:28S 32°53' E 151°46'0 0.0
2018-Feb-13 11:58S 32°53' E 151°46'0 0.0
2018-Feb-13 11:28S 32°53' E 151°46'0 0.0
2018-Feb-13 10:58S 32°53' E 151°46'0 0.0
2018-Feb-13 10:28S 32°53' E 151°46'0 0.0
2018-Feb-13 09:58S 32°53' E 151°46'0 0.0
2018-Feb-13 09:28S 32°53' E 151°46'0 0.0
2018-Feb-13 08:58S 32°53' E 151°46'0 0.0
2018-Feb-13 08:28S 32°53' E 151°46'0 0.0
2018-Feb-13 07:58S 32°53' E 151°46'0 0.0
2018-Feb-13 07:30S 32°53' E 151°46'2 3.2
2018-Feb-13 07:00S 32°55' E 151°46'4 7.1
2018-Feb-13 06:30S 32°55' E 151°51'5 9.1
2018-Feb-13 06:00S 32°60' E 151°52'13 1.7
2018-Feb-12 22:30S 33°10' E 151°42'0 0.0
2018-Feb-12 22:00S 33°10' E 151°42'1 0.2
2018-Feb-12 15:38S 33°09' E 151°43'1 4.6
2018-Feb-12 15:30S 33°09' E 151°44'4 7.5
2018-Feb-12 14:59S 33°07' E 151°48'612.7
2018-Feb-12 14:30S 33°03' E 151°54'612.8
2018-Feb-12 14:00S 32°59' E 151°59'612.9
2018-Feb-12 13:30S 32°55' E 152°05'713.3
2018-Feb-12 13:00S 32°52' E 152°12'713.4
2018-Feb-12 12:30S 32°49' E 152°19'713.6
2018-Feb-12 12:00S 32°45' E 152°26'713.4
2018-Feb-12 11:30S 32°41' E 152°32'713.3
2018-Feb-12 11:00S 32°37' E 152°38'713.1
2018-Feb-12 10:30S 32°32' E 152°44'20014.4
2018-Feb-11 20:35S 29°19' E 153°47'3514.9
2018-Feb-11 18:12S 28°44' E 153°53'514.7
2018-Feb-11 17:51S 28°39' E 153°53'514.5
2018-Feb-11 17:30S 28°34' E 153°53'714.3
2018-Feb-11 17:01S 28°27' E 153°53'714.5
2018-Feb-11 16:30S 28°20' E 153°52'714.6
2018-Feb-11 16:01S 28°12' E 153°51'714.5
2018-Feb-11 15:30S 28°05' E 153°51'714.6
2018-Feb-11 15:00S 27°58' E 153°51'714.9
2018-Feb-11 14:30S 27°50' E 153°50'714.9
2018-Feb-11 14:00S 27°43' E 153°50'814.8
2018-Feb-11 13:30S 27°35' E 153°50'815.2
2018-Feb-11 13:00S 27°28' E 153°49'815.3
2018-Feb-11 12:30S 27°20' E 153°49'815.3
2018-Feb-11 12:00S 27°13' E 153°49'815.1
2018-Feb-11 11:30S 27°05' E 153°49'714.3
2018-Feb-11 11:00S 26°58' E 153°48'713.6
2018-Feb-11 10:30S 26°51' E 153°47'3514.3
2018-Feb-11 08:05S 26°17' E 153°49'113.7
2018-Feb-11 08:00S 26°15' E 153°49'  

Dump ship's entire track history